Time;durP1;ratioP1;P1;durP2;ratioP2;P2;SDS_P1;SDS_P2;PMS_P1;PMS_P2;Temp;Humidity;BMP_temperature;BMP_pressure;BME280_temperature;BME280_humidity;BME280_pressure;Samples;Min_cycle;Max_cycle;Signal;HPM_P1;HPM_P2
2022/01/07 00:00:46;;;;;;;3.10;2.90;;;;;;;4.72;59.68;94975.94;5021469;28;20198;-65
2022/01/07 00:03:15;;;;;;;3.17;2.97;;;;;;;4.69;59.90;94962.91;5020737;28;20194;-65
2022/01/07 00:05:43;;;;;;;3.20;3.00;;;;;;;4.59;59.96;94972.19;5020826;28;20198;-65
2022/01/07 00:08:09;;;;;;;3.20;3.00;;;;;;;4.58;60.23;94978.78;5038539;28;20187;-65
2022/01/07 00:10:37;;;;;;;2.95;2.75;;;;;;;4.59;60.05;94976.84;5020666;28;20218;-65
2022/01/07 00:13:03;;;;;;;3.30;3.10;;;;;;;4.65;59.92;94972.88;5038036;28;20208;-65
2022/01/07 00:15:30;;;;;;;3.17;2.97;;;;;;;4.69;59.88;94978.50;5020408;28;20230;-65
2022/01/07 00:17:58;;;;;;;3.00;2.80;;;;;;;4.68;59.77;94985.06;5037825;28;20234;-65
2022/01/07 00:20:27;;;;;;;2.80;2.70;;;;;;;4.65;59.96;94992.00;5037593;28;20568;-65
2022/01/07 00:22:54;;;;;;;3.22;3.03;;;;;;;4.61;59.79;94984.72;5020688;28;20197;-65
2022/01/07 00:25:22;;;;;;;3.13;2.92;;;;;;;4.58;60.05;94986.19;5020458;28;20187;-65
2022/01/07 00:27:49;;;;;;;3.00;2.78;;;;;;;4.58;60.05;94995.19;5037665;28;20187;-65
2022/01/07 00:30:17;;;;;;;3.33;3.10;;;;;;;4.62;60.36;94986.34;5037625;28;20262;-65
2022/01/07 00:32:44;;;;;;;3.30;3.10;;;;;;;4.65;60.01;94980.22;5037766;28;20281;-65
2022/01/07 00:35:11;;;;;;;3.00;2.80;;;;;;;4.63;59.87;94982.50;5037739;28;20203;-65
2022/01/07 00:37:40;;;;;;;3.20;3.00;;;;;;;4.67;59.96;94988.94;5020235;28;20209;-65
2022/01/07 00:40:12;;;;;;;3.20;3.00;;;;;;;4.72;59.95;94975.94;5020485;28;20198;-66
2022/01/07 00:42:39;;;;;;;3.20;3.00;;;;;;;4.71;59.84;94979.78;5020166;28;20205;-65
2022/01/07 00:45:07;;;;;;;3.25;3.05;;;;;;;4.70;59.74;94991.84;5020160;28;20524;-65
2022/01/07 00:47:33;;;;;;;3.20;3.00;;;;;;;4.70;59.79;94994.56;5036658;28;20213;-65
2022/01/07 00:50:00;;;;;;;2.92;2.72;;;;;;;4.71;59.37;95006.28;5036461;28;20559;-65
2022/01/07 00:52:28;;;;;;;3.10;2.90;;;;;;;4.71;59.72;95012.56;5020032;28;20213;-65
2022/01/07 00:54:56;;;;;;;3.22;3.03;;;;;;;4.76;59.54;95008.91;5020033;28;20222;-65
2022/01/07 00:57:23;;;;;;;3.40;3.20;;;;;;;4.76;59.15;95017.09;5036855;28;20236;-65
2022/01/07 00:59:50;;;;;;;3.28;3.08;;;;;;;4.75;59.52;95010.78;5037176;28;20228;-65
2022/01/07 01:02:16;;;;;;;3.50;3.30;;;;;;;4.70;59.21;95019.16;5036935;28;20191;-65
2022/01/07 01:04:44;;;;;;;3.22;3.03;;;;;;;4.61;59.81;95018.31;5020221;28;20536;-64
2022/01/07 01:07:11;;;;;;;3.10;2.95;;;;;;;4.54;60.12;95024.25;5037155;28;20558;-65
2022/01/07 01:09:37;;;;;;;3.10;2.90;;;;;;;4.55;59.67;95020.38;5036740;28;20618;-65
2022/01/07 01:12:08;;;;;;;3.30;3.10;;;;;;;4.58;59.90;95024.44;5037463;28;20182;-65
2022/01/07 01:14:35;;;;;;;3.28;3.05;;;;;;;4.59;60.03;95015.91;5019636;28;20599;-65
2022/01/07 01:17:02;;;;;;;3.40;3.20;;;;;;;4.42;60.02;95021.28;5036633;28;20249;-65
2022/01/07 01:19:29;;;;;;;3.65;3.45;;;;;;;4.39;60.29;95030.09;5036738;28;20186;-65
2022/01/07 01:21:56;;;;;;;3.58;3.38;;;;;;;4.42;60.42;95032.22;5036780;28;20190;-65
2022/01/07 01:24:24;;;;;;;3.45;3.25;;;;;;;4.49;60.39;95032.56;5036830;28;20186;-65
2022/01/07 01:26:51;;;;;;;3.25;3.05;;;;;;;4.46;60.11;95030.47;5036648;28;20190;-65
2022/01/07 01:29:21;;;;;;;3.35;3.13;;;;;;;4.39;60.34;95026.56;5019055;28;20194;-65
2022/01/07 01:31:47;;;;;;;3.72;3.53;;;;;;;4.41;60.51;95027.88;5036250;28;20216;-65
2022/01/07 01:34:14;;;;;;;3.90;3.70;;;;;;;4.33;60.75;95021.25;5019008;28;20202;-65
2022/01/07 01:36:42;;;;;;;3.45;3.25;;;;;;;4.37;60.22;95017.91;5036347;28;20218;-65
2022/01/07 01:39:10;;;;;;;3.30;3.10;;;;;;;4.40;60.32;95020.81;5019082;28;20200;-65
2022/01/07 01:41:37;;;;;;;3.50;3.30;;;;;;;4.41;60.61;95024.34;5036433;28;20301;-65
2022/01/07 01:44:04;;;;;;;3.63;3.42;;;;;;;4.39;60.80;95023.84;5036286;28;20182;-65
2022/01/07 01:46:32;;;;;;;3.42;3.22;;;;;;;4.43;60.88;95025.66;5036601;28;20193;-65
2022/01/07 01:48:59;;;;;;;3.30;3.10;;;;;;;4.43;60.63;95027.56;5036446;28;20183;-65
2022/01/07 01:51:26;;;;;;;3.55;3.35;;;;;;;4.44;60.33;95026.47;5018463;28;20205;-65
2022/01/07 01:53:52;;;;;;;3.80;3.50;;;;;;;4.43;60.06;95027.56;5036393;28;20187;-65
2022/01/07 01:56:19;;;;;;;3.65;3.45;;;;;;;4.46;60.43;95019.53;5036020;28;20218;-65
2022/01/07 01:58:46;;;;;;;3.22;3.03;;;;;;;4.46;60.25;95018.72;5035707;28;20202;-65
2022/01/07 02:01:14;;;;;;;3.38;3.17;;;;;;;4.44;60.06;95010.88;5018523;28;20195;-65
2022/01/07 02:03:42;;;;;;;3.15;2.95;;;;;;;4.38;60.03;95012.13;5035874;28;20189;-65
2022/01/07 02:06:10;;;;;;;3.00;2.80;;;;;;;4.39;60.17;95026.56;5036275;28;20197;-65
2022/01/07 02:08:37;;;;;;;2.92;2.78;;;;;;;4.36;60.40;95017.09;5035899;28;20189;-65
2022/01/07 02:11:04;;;;;;;3.15;2.95;;;;;;;4.35;60.19;95019.00;5018855;28;20202;-65
2022/01/07 02:13:31;;;;;;;3.22;3.03;;;;;;;4.29;60.75;95024.94;5018447;28;20202;-65
2022/01/07 02:15:58;;;;;;;2.90;2.70;;;;;;;4.32;60.73;95027.84;5035544;28;20226;-65
2022/01/07 02:18:24;;;;;;;3.20;3.00;;;;;;;4.36;60.30;95036.22;5036100;28;20226;-65
2022/01/07 02:20:53;;;;;;;3.03;2.83;;;;;;;4.33;60.43;95029.47;5018647;28;20205;-64
2022/01/07 02:23:20;;;;;;;3.30;3.10;;;;;;;4.31;60.37;95039.06;5035875;28;20192;-64
2022/01/07 02:25:47;;;;;;;3.00;2.80;;;;;;;4.26;60.59;95036.50;5018445;28;20201;-64
2022/01/07 02:28:14;;;;;;;3.08;2.88;;;;;;;4.19;60.54;95033.41;5035388;28;20183;-64
2022/01/07 02:30:42;;;;;;;3.28;3.08;;;;;;;4.15;61.13;95043.34;5018322;28;20206;-64
2022/01/07 02:33:09;;;;;;;3.00;2.80;;;;;;;4.19;60.74;95041.59;5017929;28;20293;-64
2022/01/07 02:35:36;;;;;;;3.50;3.25;;;;;;;4.25;61.03;95041.16;5035322;28;20202;-64
2022/01/07 02:38:05;;;;;;;3.13;2.92;;;;;;;4.29;60.11;95041.31;5018641;28;20213;-65
2022/01/07 02:40:32;;;;;;;3.25;3.05;;;;;;;4.30;60.42;95042.94;5018284;28;20210;-64
2022/01/07 02:42:59;;;;;;;3.28;3.08;;;;;;;4.26;60.35;95050.13;5017958;28;20198;-65
2022/01/07 02:45:26;;;;;;;2.92;2.72;;;;;;;4.20;60.55;95049.44;5017956;28;20197;-64
2022/01/07 02:47:54;;;;;;;3.03;2.83;;;;;;;4.21;60.76;95058.44;5035050;28;20202;-65
2022/01/07 02:50:24;;;;;;;2.80;2.70;;;;;;;4.18;60.56;95054.44;5034978;28;20190;-65
2022/01/07 02:52:51;;;;;;;3.90;2.88;;;;;;;4.21;61.08;95058.44;5018370;28;20223;-65
2022/01/07 02:55:20;;;;;;;3.30;3.10;;;;;;;4.18;60.68;95062.63;5035173;28;20237;-65
2022/01/07 02:57:47;;;;;;;3.42;3.22;;;;;;;4.17;60.80;95060.19;5034813;28;20198;-64
2022/01/07 03:00:16;;;;;;;3.05;2.85;;;;;;;4.21;60.36;95056.56;5035121;28;20186;-64
2022/01/07 03:02:44;;;;;;;3.13;2.92;;;;;;;4.20;60.27;95054.91;5017907;28;20205;-64
2022/01/07 03:05:11;;;;;;;2.92;2.72;;;;;;;4.24;60.57;95058.63;5017801;28;20289;-64
2022/01/07 03:07:38;;;;;;;3.08;2.88;;;;;;;4.22;60.38;95052.69;5034813;28;20182;-65
2022/01/07 03:10:06;;;;;;;3.40;3.20;;;;;;;4.18;60.31;95043.53;5017734;28;20206;-65
2022/01/07 03:12:36;;;;;;;2.83;2.72;;;;;;;4.21;60.35;95048.34;5020475;28;20205;-65
2022/01/07 03:15:03;;;;;;;3.22;3.03;;;;;;;4.18;60.34;95051.72;5038830;28;20236;-65
2022/01/07 03:17:30;;;;;;;3.05;2.85;;;;;;;4.15;60.72;95059.72;5039054;28;20535;-64
2022/01/07 03:19:57;;;;;;;3.35;3.15;;;;;;;4.12;60.73;95061.13;5021917;28;20198;-67
2022/01/07 03:22:24;;;;;;;3.42;3.22;;;;;;;4.17;60.81;95066.47;5022069;28;20195;-65
2022/01/07 03:24:51;;;;;;;3.38;3.17;;;;;;;4.19;60.62;95066.97;5021704;28;20200;-65
2022/01/07 03:27:17;;;;;;;4.00;3.70;;;;;;;4.15;60.70;95065.19;5038953;28;20194;-65
2022/01/07 03:29:46;;;;;;;4.07;3.78;;;;;;;4.10;60.56;95066.09;5038823;28;20232;-65
2022/01/07 03:32:12;;;;;;;4.78;4.45;;;;;;;4.13;60.72;95065.47;5021551;28;20194;-65
2022/01/07 03:34:39;;;;;;;4.35;3.95;;;;;;;4.12;60.60;95072.06;5038802;28;20198;-65
2022/01/07 03:37:06;;;;;;;3.80;3.60;;;;;;;4.10;61.16;95057.91;5038714;28;20202;-64
2022/01/07 03:39:33;;;;;;;4.47;4.18;;;;;;;4.13;61.08;95064.66;5038713;28;20182;-65
2022/01/07 03:42:00;;;;;;;3.78;3.58;;;;;;;4.09;60.91;95059.81;5038251;28;20187;-65
2022/01/07 03:44:26;;;;;;;3.88;3.55;;;;;;;4.01;60.89;95074.22;5021576;28;20530;-66
2022/01/07 03:46:55;;;;;;;3.80;3.50;;;;;;;4.06;61.25;95084.22;5021441;28;20210;-65
2022/01/07 03:49:21;;;;;;;3.70;3.50;;;;;;;4.04;60.86;95079.06;5038506;28;20201;-65
2022/01/07 03:51:48;;;;;;;4.00;3.80;;;;;;;4.07;61.10;95081.19;5038620;28;20189;-65
2022/01/07 03:54:15;;;;;;;3.90;3.70;;;;;;;4.08;61.14;95080.06;5021600;28;20206;-65
2022/01/07 03:56:42;;;;;;;4.18;3.88;;;;;;;4.06;60.71;95084.22;5038152;28;20229;-65
2022/01/07 03:59:09;;;;;;;4.10;3.80;;;;;;;4.07;61.17;95069.47;5038243;28;20413;-65
2022/01/07 04:01:35;;;;;;;4.20;3.90;;;;;;;4.02;61.26;95078.56;5020918;28;20205;-65
2022/01/07 04:04:04;;;;;;;4.60;4.30;;;;;;;3.95;61.34;95083.66;5021241;28;20199;-65
2022/01/07 04:06:31;;;;;;;4.47;4.18;;;;;;;4.02;60.79;95083.22;5038066;28;20186;-65
2022/01/07 04:08:58;;;;;;;4.18;3.90;;;;;;;4.04;60.96;95081.00;5020821;28;20202;-65
2022/01/07 04:11:25;;;;;;;4.40;4.10;;;;;;;4.07;61.02;95088.56;5020726;28;20205;-66
2022/01/07 04:13:52;;;;;;;4.60;4.30;;;;;;;4.05;60.84;95085.34;5020678;28;20201;-65
2022/01/07 04:16:19;;;;;;;4.50;4.20;;;;;;;3.98;61.19;95091.22;5038135;28;20218;-65
2022/01/07 04:18:45;;;;;;;5.00;4.60;;;;;;;4.04;61.21;95092.72;5017252;28;20242;-65
2022/01/07 04:21:14;;;;;;;4.20;3.90;;;;;;;4.04;60.93;95095.44;5017711;28;20210;-65
2022/01/07 04:23:42;;;;;;;4.72;4.43;;;;;;;4.06;61.13;95100.59;5018181;28;20187;-65
2022/01/07 04:26:09;;;;;;;4.78;4.45;;;;;;;4.10;61.03;95107.88;5017572;28;20191;-68
2022/01/07 04:28:35;;;;;;;4.63;4.32;;;;;;;4.14;61.22;95108.06;5018057;28;20184;-71
2022/01/07 04:31:02;;;;;;;4.65;4.35;;;;;;;4.15;61.04;95103.41;5016893;28;20203;-65
2022/01/07 04:33:32;;;;;;;4.90;4.57;;;;;;;4.18;60.64;95116.44;5018121;28;20564;-65
2022/01/07 04:35:59;;;;;;;4.70;4.40;;;;;;;4.15;60.70;95106.13;5018031;28;20207;-65
2022/01/07 04:38:27;;;;;;;4.63;4.25;;;;;;;4.15;61.03;95108.84;5017200;28;20210;-65
2022/01/07 04:40:54;;;;;;;4.47;4.18;;;;;;;4.19;61.00;95109.84;5018028;28;20192;-65
2022/01/07 04:43:21;;;;;;;4.93;4.57;;;;;;;4.14;61.42;95112.69;5017667;28;20183;-65
2022/01/07 04:45:48;;;;;;;4.43;4.13;;;;;;;4.16;60.89;95118.66;5016485;28;20286;-67
2022/01/07 04:48:15;;;;;;;5.07;4.68;;;;;;;4.16;61.04;95122.19;5017832;28;20183;-65
2022/01/07 04:50:42;;;;;;;4.53;4.20;;;;;;;4.17;61.08;95129.25;5016818;28;20199;-65
2022/01/07 04:53:09;;;;;;;4.43;4.13;;;;;;;4.15;61.11;95131.50;5018514;28;20271;-66
2022/01/07 04:55:38;;;;;;;4.10;3.80;;;;;;;4.10;61.34;95132.44;5017497;28;20195;-65
2022/01/07 04:58:06;;;;;;;5.05;4.55;;;;;;;4.10;61.45;95128.88;5017787;28;20179;-65
2022/01/07 05:00:34;;;;;;;5.30;4.90;;;;;;;4.11;61.25;95133.22;5017559;28;20191;-65
2022/01/07 05:03:01;;;;;;;4.78;4.38;;;;;;;4.11;61.10;95133.22;5017205;28;20182;-65
2022/01/07 05:05:27;;;;;;;4.88;4.50;;;;;;;4.10;61.30;95137.06;5016528;28;20199;-67
2022/01/07 05:07:54;;;;;;;5.03;4.40;;;;;;;4.11;61.65;95135.97;5017062;28;20195;-65
2022/01/07 05:10:22;;;;;;;4.72;4.32;;;;;;;4.13;61.39;95135.63;5016170;28;20207;-66
2022/01/07 05:12:50;;;;;;;4.35;3.95;;;;;;;4.15;61.27;95142.41;5017180;28;20294;-66
2022/01/07 05:15:17;;;;;;;4.40;4.10;;;;;;;4.13;61.63;95133.72;5016573;28;20298;-65
2022/01/07 05:17:45;;;;;;;4.85;4.45;;;;;;;4.15;61.21;95136.94;5030534;28;20248;-65
2022/01/07 05:20:13;;;;;;;4.82;4.32;;;;;;;4.15;61.34;95138.88;5021451;28;20202;-64
2022/01/07 05:22:41;;;;;;;4.50;4.10;;;;;;;4.16;61.33;95135.03;5036948;28;20178;-64
2022/01/07 05:25:09;;;;;;;5.03;4.63;;;;;;;4.07;61.59;95138.50;5019313;28;20206;-64
2022/01/07 05:27:36;;;;;;;4.80;4.32;;;;;;;4.07;61.52;95138.50;5019230;28;20199;-65
2022/01/07 05:30:06;;;;;;;5.20;4.80;;;;;;;4.06;61.62;95144.25;5036768;28;20195;-65
2022/01/07 05:32:33;;;;;;;5.90;5.40;;;;;;;4.05;61.79;95143.47;5037350;28;20187;-65
2022/01/07 05:35:00;;;;;;;5.57;5.18;;;;;;;4.03;61.79;95142.16;5036041;28;20183;-65
2022/01/07 05:37:27;;;;;;;5.88;5.25;;;;;;;4.01;62.04;95144.38;5018905;28;20218;-65
2022/01/07 05:39:56;;;;;;;5.50;5.10;;;;;;;4.03;62.18;95148.44;5019210;28;20279;-64
2022/01/07 05:42:22;;;;;;;5.50;5.10;;;;;;;4.08;61.76;95155.69;5018925;28;20201;-64
2022/01/07 05:44:49;;;;;;;5.25;4.82;;;;;;;4.10;61.65;95157.00;5018766;28;20194;-64
2022/01/07 05:47:18;;;;;;;5.60;5.20;;;;;;;4.02;61.92;95154.19;5019066;28;20208;-65
2022/01/07 05:49:45;;;;;;;5.35;4.82;;;;;;;4.04;62.00;95157.44;5018670;28;20194;-65
2022/01/07 05:52:11;;;;;;;5.50;5.10;;;;;;;4.09;61.66;95154.56;5019022;28;20198;-65
2022/01/07 05:54:38;;;;;;;5.57;5.18;;;;;;;4.07;61.90;95154.09;5018988;28;20195;-66
2022/01/07 05:57:06;;;;;;;5.95;5.45;;;;;;;4.08;61.65;95153.75;5035781;28;20631;-64
2022/01/07 05:59:33;;;;;;;5.60;5.10;;;;;;;4.09;61.97;95160.03;5018804;28;20252;-65
2022/01/07 06:02:00;;;;;;;5.07;4.78;;;;;;;4.07;61.49;95165.00;5036626;28;20186;-65
2022/01/07 06:04:28;;;;;;;5.40;5.00;;;;;;;4.07;61.99;95159.53;5036167;28;20193;-65
2022/01/07 06:06:55;;;;;;;5.75;5.25;;;;;;;4.09;62.04;95160.03;5018999;28;20198;-65
2022/01/07 06:09:22;;;;;;;5.38;4.97;;;;;;;4.10;62.03;95167.09;5018773;28;20190;-65
2022/01/07 06:11:49;;;;;;;5.80;5.40;;;;;;;4.07;61.83;95156.81;5036212;28;20209;-65
2022/01/07 06:14:15;;;;;;;6.68;5.85;;;;;;;4.08;61.67;95161.94;5018444;28;20269;-65
2022/01/07 06:16:42;;;;;;;5.80;5.40;;;;;;;4.15;61.93;95160.72;5017986;28;20242;-65
2022/01/07 06:19:09;;;;;;;6.43;5.43;;;;;;;4.10;61.88;95158.91;5035702;28;20179;-65
2022/01/07 06:21:38;;;;;;;6.25;5.75;;;;;;;4.07;61.83;95154.88;5018362;28;20273;-65
2022/01/07 06:24:05;;;;;;;6.85;6.28;;;;;;;4.09;61.67;95162.75;5035504;28;20194;-65
2022/01/07 06:26:32;;;;;;;6.43;5.90;;;;;;;4.14;62.04;95168.09;5035753;28;20507;-65
2022/01/07 06:28:59;;;;;;;6.38;5.82;;;;;;;4.14;61.37;95167.28;5018467;28;20248;-65
2022/01/07 06:31:26;;;;;;;6.60;6.15;;;;;;;4.13;61.28;95171.13;5018308;28;20198;-65
2022/01/07 06:33:53;;;;;;;6.20;5.80;;;;;;;4.06;62.13;95175.09;5035803;28;20183;-65
2022/01/07 06:36:20;;;;;;;6.40;6.00;;;;;;;4.10;61.54;95178.00;5036100;28;20316;-65
2022/01/07 06:38:48;;;;;;;6.90;6.30;;;;;;;4.12;61.70;95178.50;5018758;28;20202;-65
2022/01/07 06:41:15;;;;;;;6.22;5.82;;;;;;;4.16;61.54;95186.91;5035418;28;20182;-65
2022/01/07 06:43:43;;;;;;;6.97;6.47;;;;;;;4.22;61.83;95181.00;5017959;28;20206;-65
2022/01/07 06:46:11;;;;;;;7.05;6.55;;;;;;;4.26;61.13;95187.47;5017338;28;20194;-65
2022/01/07 06:48:38;;;;;;;6.80;6.25;;;;;;;4.23;61.17;95196.25;5018165;28;20194;-66
2022/01/07 06:51:05;;;;;;;6.95;6.45;;;;;;;4.25;61.18;95194.03;5035403;28;20187;-66
2022/01/07 06:53:31;;;;;;;7.53;6.93;;;;;;;4.23;61.33;95196.25;5017887;28;20209;-66
2022/01/07 06:56:00;;;;;;;7.60;7.00;;;;;;;4.24;61.54;95199.78;5018036;28;20205;-65
2022/01/07 06:58:27;;;;;;;8.10;7.40;;;;;;;4.25;60.93;95202.22;5018421;28;20221;-64
2022/01/07 07:00:54;;;;;;;7.13;6.63;;;;;;;4.22;61.16;95197.38;5035274;28;20354;-65
2022/01/07 07:03:20;;;;;;;6.55;5.97;;;;;;;4.29;61.24;95195.03;5035430;28;20187;-64
2022/01/07 07:05:47;;;;;;;6.70;6.20;;;;;;;4.31;61.31;95192.78;5035378;28;20178;-64
2022/01/07 07:08:14;;;;;;;6.55;6.05;;;;;;;4.30;60.90;95196.63;5017707;28;20205;-65
2022/01/07 07:10:41;;;;;;;6.57;6.07;;;;;;;4.25;60.91;95198.69;5018495;28;20206;-65
2022/01/07 07:13:09;;;;;;;6.45;6.03;;;;;;;4.26;60.96;95192.13;5017469;28;20190;-65
2022/01/07 07:15:36;;;;;;;7.40;6.80;;;;;;;4.29;60.96;95194.22;5034815;28;20209;-64
2022/01/07 07:18:03;;;;;;;7.20;6.60;;;;;;;4.30;61.09;95193.09;5034740;28;20245;-64
2022/01/07 07:20:30;;;;;;;7.60;6.95;;;;;;;4.30;61.44;95190.38;5035154;28;20182;-65
2022/01/07 07:22:57;;;;;;;7.53;7.03;;;;;;;4.30;61.10;95199.38;5017514;28;20202;-64
2022/01/07 07:25:25;;;;;;;8.82;8.02;;;;;;;4.35;60.70;95193.78;5017904;28;20301;-64
2022/01/07 07:27:52;;;;;;;8.60;7.90;;;;;;;4.40;60.68;95203.00;5017772;28;20296;-65
2022/01/07 07:30:20;;;;;;;8.20;7.47;;;;;;;4.40;60.77;95198.31;5018062;28;20285;-65
2022/01/07 07:32:50;;;;;;;8.10;7.40;;;;;;;4.42;60.75;95204.28;5035144;28;20187;-65
2022/01/07 07:38:01;;;;;;;8.95;8.10;;;;;;;4.43;60.95;95197.72;5034623;28;20226;-64
2022/01/07 07:40:28;;;;;;;8.70;7.78;;;;;;;4.41;60.69;95194.47;5034858;28;20252;-64
2022/01/07 07:42:55;;;;;;;9.05;8.25;;;;;;;4.45;60.60;95195.47;5035137;28;20192;-64
2022/01/07 07:45:24;;;;;;;8.85;8.05;;;;;;;4.51;60.74;95196.97;5034858;28;20212;-65
2022/01/07 07:47:51;;;;;;;11.25;9.70;;;;;;;4.59;60.51;95198.94;5034862;28;20192;-64
2022/01/07 07:50:17;;;;;;;8.98;8.07;;;;;;;4.58;60.35;95197.31;5034546;28;20187;-64
2022/01/07 07:52:44;;;;;;;8.77;8.05;;;;;;;4.54;59.77;95195.53;5017481;28;20206;-65
2022/01/07 07:55:11;;;;;;;9.10;8.40;;;;;;;4.51;60.21;95194.22;5017360;28;20206;-64
2022/01/07 07:57:38;;;;;;;9.57;8.68;;;;;;;4.53;60.61;95191.97;5035410;28;20206;-64
2022/01/07 08:00:06;;;;;;;8.82;8.10;;;;;;;4.50;60.38;95198.09;5021006;28;20198;-65
2022/01/07 08:02:35;;;;;;;9.10;8.40;;;;;;;4.46;60.47;95193.53;5038096;28;20186;-64
2022/01/07 08:05:02;;;;;;;8.32;7.63;;;;;;;4.50;60.30;95197.25;5038305;28;20187;-64
2022/01/07 08:07:28;;;;;;;8.00;7.40;;;;;;;4.51;60.61;95196.16;5020579;28;20614;-65
2022/01/07 08:09:55;;;;;;;8.55;7.90;;;;;;;4.52;60.55;95198.56;5021178;28;20194;-65
2022/01/07 08:12:27;;;;;;;9.20;8.40;;;;;;;4.54;60.54;95203.72;5038149;28;20191;-65
2022/01/07 08:17:40;;;;;;;8.60;7.80;;;;;;;4.59;60.39;95198.94;5037772;28;20226;-65
2022/01/07 08:20:08;;;;;;;8.63;7.97;;;;;;;4.65;60.58;95198.78;5038084;28;20197;-65
2022/01/07 08:22:35;;;;;;;8.55;7.85;;;;;;;4.65;60.13;95190.59;5020858;28;20195;-65
2022/01/07 08:25:04;;;;;;;9.90;9.20;;;;;;;4.70;60.03;95194.00;5020665;28;20198;-65
2022/01/07 08:27:31;;;;;;;10.38;9.48;;;;;;;4.71;60.64;95190.16;5037827;28;20182;-65
2022/01/07 08:29:57;;;;;;;8.88;8.20;;;;;;;4.78;60.14;95200.66;5020656;28;20202;-65
2022/01/07 08:35:09;;;;;;;10.13;9.32;;;;;;;4.91;60.23;95198.97;4990761;28;20205;-65
2022/01/07 08:37:36;;;;;;;10.30;9.40;;;;;;;4.95;60.39;95183.53;5037262;28;20198;-65
2022/01/07 08:40:04;;;;;;;9.32;8.55;;;;;;;4.88;60.05;95183.19;5037366;28;20182;-65
2022/01/07 08:42:32;;;;;;;9.88;9.00;;;;;;;4.97;60.50;95184.03;5020250;28;20201;-65
2022/01/07 08:44:59;;;;;;;9.02;8.23;;;;;;;5.01;60.70;95183.09;5037628;28;20199;-65
2022/01/07 08:47:26;;;;;;;8.70;8.00;;;;;;;5.10;59.79;95183.13;5037450;28;20300;-64
2022/01/07 08:49:53;;;;;;;10.80;9.90;;;;;;;5.22;59.75;95182.53;5019842;28;20638;-64
2022/01/07 08:52:22;;;;;;;9.60;8.70;;;;;;;5.28;59.71;95176.59;5019873;28;20214;-64
2022/01/07 08:54:51;;;;;;;9.50;8.70;;;;;;;5.31;59.34;95178.72;5037307;28;20183;-63
2022/01/07 08:57:19;;;;;;;10.00;9.20;;;;;;;5.32;58.74;95174.84;5019536;28;20314;-63
2022/01/07 08:59:46;;;;;;;9.30;8.50;;;;;;;5.33;58.88;95170.16;5037540;28;20206;-64
2022/01/07 09:02:13;;;;;;;11.23;10.23;;;;;;;5.37;59.11;95162.94;5019631;28;20202;-64
2022/01/07 09:04:40;;;;;;;10.57;9.68;;;;;;;5.43;59.33;95166.34;5037151;28;20189;-64
2022/01/07 09:07:06;;;;;;;11.68;10.68;;;;;;;5.45;59.11;95158.66;5037015;28;20194;-64
2022/01/07 09:09:35;;;;;;;11.02;10.05;;;;;;;5.46;58.92;95160.25;5036030;28;20190;-64
2022/01/07 09:12:01;;;;;;;10.90;10.00;;;;;;;5.44;58.83;95155.06;5037028;28;20190;-64
2022/01/07 09:14:28;;;;;;;10.13;9.32;;;;;;;5.44;58.40;95152.34;5019701;28;20213;-64
2022/01/07 09:16:55;;;;;;;8.52;7.82;;;;;;;5.47;58.64;95156.38;5036582;28;20809;-64
2022/01/07 09:19:22;;;;;;;9.65;8.95;;;;;;;5.52;58.30;95150.78;5019344;28;20218;-64
2022/01/07 09:21:48;;;;;;;9.10;8.40;;;;;;;5.58;58.53;95143.22;5018969;28;20191;-64
2022/01/07 09:24:15;;;;;;;9.52;8.80;;;;;;;5.60;58.30;95149.19;5036526;28;20274;-64
2022/01/07 09:26:43;;;;;;;9.18;8.45;;;;;;;5.65;58.52;95149.00;5036192;28;20552;-64
2022/01/07 09:29:10;;;;;;;9.77;8.98;;;;;;;5.71;58.24;95140.34;5036452;28;20183;-64
2022/01/07 09:31:37;;;;;;;11.02;9.93;;;;;;;5.82;58.14;95140.84;5036386;28;20182;-64
2022/01/07 09:34:03;;;;;;;10.13;9.23;;;;;;;5.92;58.60;95134.22;5036134;28;20194;-64
2022/01/07 09:36:30;;;;;;;11.15;10.15;;;;;;;5.98;57.15;95135.72;5019383;28;20202;-64
2022/01/07 09:38:57;;;;;;;10.95;10.00;;;;;;;5.98;57.98;95124.75;5036309;28;20328;-64
2022/01/07 09:41:24;;;;;;;11.13;10.20;;;;;;;5.98;57.28;95131.03;5036152;28;20191;-64
2022/01/07 09:43:52;;;;;;;10.05;9.25;;;;;;;6.07;57.83;95130.25;5018960;28;20194;-64
2022/01/07 09:46:19;;;;;;;10.00;9.07;;;;;;;6.15;57.32;95124.75;5036253;28;20197;-64
2022/01/07 09:48:46;;;;;;;8.65;7.88;;;;;;;6.20;56.85;95119.09;5036772;28;20187;-65
2022/01/07 09:51:14;;;;;;;10.85;9.95;;;;;;;6.27;56.68;95119.41;5019004;28;20202;-64
2022/01/07 09:53:41;;;;;;;9.63;8.77;;;;;;;6.34;56.32;95118.94;5036311;28;20278;-64
2022/01/07 09:56:07;;;;;;;8.60;7.97;;;;;;;6.36;56.45;95118.63;5036130;28;20202;-64
2022/01/07 09:58:35;;;;;;;7.90;7.28;;;;;;;6.39;56.34;95115.22;5019077;28;20233;-63
2022/01/07 10:01:06;;;;;;;9.00;8.20;;;;;;;6.35;56.33;95111.50;5018960;28;20194;-64
2022/01/07 10:03:38;;;;;;;8.32;7.53;;;;;;;6.37;56.08;95112.00;5036109;28;20190;-64
2022/01/07 10:06:17;;;;;;;7.32;6.63;;;;;;;6.40;55.89;95105.88;5019118;28;20241;-64
2022/01/07 10:08:44;;;;;;;7.82;7.20;;;;;;;6.42;55.69;95103.59;5018903;28;20260;-64
2022/01/07 10:11:14;;;;;;;7.93;7.22;;;;;;;6.46;56.27;95113.59;5036123;28;20198;-64
2022/01/07 10:13:42;;;;;;;7.80;7.10;;;;;;;6.50;56.48;95100.06;5018555;28;20225;-64
2022/01/07 10:16:19;;;;;;;7.65;7.05;;;;;;;6.56;55.95;95103.41;5018991;28;20202;-64
2022/01/07 10:18:47;;;;;;;9.98;8.10;;;;;;;6.62;55.91;95100.19;5036226;28;20249;-64
2022/01/07 10:21:15;;;;;;;7.60;7.00;;;;;;;6.67;55.60;95104.69;5035630;28;20191;-64
2022/01/07 10:23:42;;;;;;;6.35;5.78;;;;;;;6.69;55.02;95100.47;5035565;28;20520;-64
2022/01/07 10:26:15;;;;;;;6.40;5.90;;;;;;;6.70;55.60;95101.28;5035882;28;20198;-65
2022/01/07 10:28:42;;;;;;;7.65;6.95;;;;;;;6.75;55.40;95090.13;5018228;28;20212;-65
2022/01/07 10:31:09;;;;;;;7.20;6.60;;;;;;;6.79;55.41;95088.38;5018181;28;20213;-64
2022/01/07 10:33:39;;;;;;;7.57;6.97;;;;;;;6.82;55.00;95082.19;5018322;28;20198;-64
2022/01/07 10:36:17;;;;;;;7.68;6.97;;;;;;;6.83;55.98;95074.81;5036075;28;20194;-64
2022/01/07 10:38:53;;;;;;;7.72;7.03;;;;;;;6.82;55.27;95075.91;5035189;28;20294;-64
2022/01/07 10:41:20;;;;;;;7.45;6.75;;;;;;;6.81;54.79;95069.63;5035555;28;20190;-64
2022/01/07 10:43:47;;;;;;;7.63;7.03;;;;;;;6.79;55.05;95066.44;5035805;28;20190;-64
2022/01/07 10:46:16;;;;;;;7.15;6.50;;;;;;;6.84;54.83;95073.66;5018243;28;20207;-64
2022/01/07 10:48:47;;;;;;;8.15;7.55;;;;;;;6.92;55.14;95068.13;5036137;28;20206;-64
2022/01/07 10:51:15;;;;;;;10.85;9.93;;;;;;;6.95;55.01;95067.47;5035785;28;20190;-64
2022/01/07 10:53:48;;;;;;;10.27;8.73;;;;;;;6.94;54.79;95065.09;5035719;28;20190;-65
2022/01/07 10:56:17;;;;;;;9.18;8.38;;;;;;;6.95;54.50;95064.75;5018586;28;20209;-64
2022/01/07 10:59:01;;;;;;;9.05;8.25;;;;;;;6.95;54.63;95070.22;5035325;28;20288;-64
2022/01/07 11:01:49;;;;;;;10.90;9.90;;;;;;;7.03;54.77;95065.81;5017732;28;20194;-64
2022/01/07 11:04:18;;;;;;;14.32;12.35;;;;;;;7.05;54.13;95066.31;5028663;28;20218;-64
2022/01/07 11:06:46;;;;;;;17.85;16.05;;;;;;;7.05;54.22;95069.06;5017794;28;20198;-64
2022/01/07 11:09:15;;;;;;;18.75;17.02;;;;;;;7.02;54.22;95064.22;5017943;28;20196;-64
2022/01/07 11:11:50;;;;;;;17.45;15.75;;;;;;;7.04;54.07;95061.13;5035218;28;20197;-64
2022/01/07 11:14:19;;;;;;;17.05;15.55;;;;;;;7.02;54.27;95053.25;5018801;28;20204;-64
2022/01/07 11:16:46;;;;;;;15.70;14.30;;;;;;;6.93;53.84;95053.28;5017634;28;20233;-64
2022/01/07 11:19:20;;;;;;;15.70;14.30;;;;;;;6.92;53.84;95046.19;5017624;28;20217;-64
2022/01/07 11:21:50;;;;;;;12.52;11.45;;;;;;;7.00;53.94;95044.53;5017697;28;20190;-64
2022/01/07 11:24:33;;;;;;;13.82;12.57;;;;;;;7.10;54.04;95049.66;5034922;28;20248;-64
2022/01/07 11:27:00;;;;;;;12.88;11.77;;;;;;;7.16;53.95;95048.34;5017926;28;20579;-64
2022/01/07 11:29:28;;;;;;;11.40;10.40;;;;;;;7.16;53.79;95048.34;5035070;28;20190;-64
2022/01/07 11:31:55;;;;;;;11.43;10.32;;;;;;;7.22;53.84;95043.44;5034750;28;20202;-64
2022/01/07 11:34:26;;;;;;;11.25;10.13;;;;;;;7.26;53.69;95054.56;5038686;28;20187;-64
2022/01/07 11:36:53;;;;;;;10.93;9.95;;;;;;;7.23;53.37;95042.34;5021833;28;20205;-64
2022/01/07 11:39:23;;;;;;;11.98;10.98;;;;;;;7.20;53.07;95041.06;5038757;28;20206;-64
2022/01/07 11:41:53;;;;;;;13.10;11.93;;;;;;;7.18;53.48;95039.78;5038722;28;20241;-65
2022/01/07 11:44:26;;;;;;;14.10;12.90;;;;;;;7.11;53.32;95036.75;5038887;28;20204;-65
2022/01/07 11:47:12;;;;;;;14.57;13.10;;;;;;;7.08;53.36;95030.00;5038762;28;20221;-64
2022/01/07 11:49:40;;;;;;;15.60;13.25;;;;;;;7.08;53.21;95026.44;5039058;28;20205;-65